createdAt,value
2022-08-28T00:03:03.363Z,17.86
2022-08-28T00:08:03.329Z,17.85
2022-08-28T00:13:03.338Z,17.82
2022-08-28T00:28:05.379Z,17.8
2022-08-28T00:38:03.287Z,17.65
2022-08-28T01:58:03.243Z,17.27
2022-08-28T02:03:03.183Z,17.26
2022-08-28T02:13:03.176Z,17.26
2022-08-28T02:18:03.165Z,17.26
2022-08-28T02:23:03.148Z,17.26
2022-08-28T02:28:03.159Z,17.26
2022-08-28T02:33:03.162Z,17.26
2022-08-28T02:38:03.162Z,17.26
2022-08-28T02:43:03.127Z,17.23
2022-08-28T02:48:03.138Z,17.21
2022-08-28T02:53:03.127Z,17.22
2022-08-28T02:58:03.109Z,17.25
2022-08-28T03:03:03.122Z,17.22
2022-08-28T03:08:03.116Z,17.2
2022-08-28T03:13:03.098Z,17.2
2022-08-28T03:18:03.088Z,17.18
2022-08-28T03:23:03.090Z,17.13
2022-08-28T03:28:03.084Z,17.11
2022-08-28T03:33:03.079Z,17.11
2022-08-28T03:38:03.073Z,17.15
2022-08-28T03:43:03.057Z,17.16
2022-08-28T03:48:03.048Z,17.16
2022-08-28T03:53:03.061Z,17.16
2022-08-28T03:58:03.104Z,17.16
2022-08-28T04:03:03.147Z,17.17
2022-08-28T04:08:03.050Z,17.21
2022-08-28T04:13:03.037Z,17.25
2022-08-28T04:18:03.060Z,17.26
2022-08-28T04:23:03.017Z,17.26
2022-08-28T04:28:03.002Z,17.29
2022-08-28T04:33:02.989Z,17.32
2022-08-28T04:38:05.520Z,17.37
2022-08-28T04:43:02.973Z,17.37
2022-08-28T04:48:03.349Z,17.37
2022-08-28T04:53:02.973Z,17.42
2022-08-28T04:58:02.964Z,17.43
2022-08-28T05:03:02.963Z,17.48
2022-08-28T05:08:02.963Z,17.52
2022-08-28T05:13:02.946Z,17.54
2022-08-28T05:18:02.933Z,17.57
2022-08-28T05:23:02.937Z,17.62
2022-08-28T05:28:02.929Z,17.64
2022-08-28T05:33:02.934Z,17.67
2022-08-28T05:38:02.900Z,17.71
2022-08-28T05:43:02.923Z,17.75
2022-08-28T05:48:02.919Z,17.8
2022-08-28T05:53:02.887Z,17.86
2022-08-28T05:58:02.885Z,17.88
2022-08-28T06:03:02.887Z,17.89
2022-08-28T06:08:02.860Z,17.91
2022-08-28T06:13:02.875Z,17.92
2022-08-28T06:18:02.870Z,17.95
2022-08-28T06:23:02.865Z,17.99
2022-08-28T06:28:02.854Z,18.01
2022-08-28T06:33:02.862Z,18.01
2022-08-28T06:38:02.836Z,18.01
2022-08-28T06:43:02.856Z,18.01
2022-08-28T06:48:02.816Z,18.03
2022-08-28T06:53:02.826Z,18.06
2022-08-28T06:58:02.808Z,18.19
2022-08-28T07:03:02.861Z,18.36
2022-08-28T07:08:02.795Z,18.42
2022-08-28T07:13:02.792Z,18.48
2022-08-28T07:18:02.799Z,18.59
2022-08-28T07:23:02.776Z,18.79
2022-08-28T07:28:02.762Z,18.76
2022-08-28T07:33:02.783Z,18.61
2022-08-28T07:38:02.751Z,18.59
2022-08-28T07:43:02.755Z,18.83
2022-08-28T07:53:02.746Z,19.34
2022-08-28T07:58:02.738Z,19.39
2022-08-28T08:03:02.791Z,19.44
2022-08-28T08:08:02.717Z,19.35
2022-08-28T08:13:02.716Z,19.22
2022-08-28T08:18:02.740Z,19.19
2022-08-28T08:23:02.708Z,19.21
2022-08-28T08:28:02.709Z,19.24
2022-08-28T08:33:02.710Z,19.25
2022-08-28T08:38:03.016Z,19.32
2022-08-28T08:43:02.663Z,19.28
2022-08-28T08:48:02.660Z,19.46
2022-08-28T08:53:02.669Z,19.52
2022-08-28T08:58:02.695Z,19.48
2022-08-28T09:03:02.751Z,19.45
2022-08-28T09:08:02.653Z,19.44
2022-08-28T09:13:02.631Z,19.45
2022-08-28T09:18:02.625Z,19.59
2022-08-28T09:23:12.522Z,19.67
2022-08-28T09:28:02.615Z,19.73
2022-08-28T09:33:02.615Z,19.77
2022-08-28T09:38:02.602Z,19.75
2022-08-28T09:43:02.622Z,19.65
2022-08-28T09:48:02.604Z,19.59
2022-08-28T09:53:02.593Z,19.64
2022-08-28T09:58:02.561Z,19.68
2022-08-28T10:03:07.047Z,19.6
2022-08-28T10:08:02.575Z,19.38
2022-08-28T10:13:02.554Z,19.2
2022-08-28T10:18:02.549Z,19.12
2022-08-28T10:23:02.532Z,19.19
2022-08-28T10:28:02.549Z,19.6
2022-08-28T10:33:02.551Z,19.87
2022-08-28T10:38:02.530Z,20.16
2022-08-28T10:43:02.518Z,20.4
2022-08-28T10:48:02.526Z,20.5
2022-08-28T10:53:02.494Z,20.66
2022-08-28T10:58:02.501Z,20.82
2022-08-28T11:03:02.550Z,20.93
2022-08-28T11:08:02.472Z,20.98
2022-08-28T11:13:02.474Z,21.16
2022-08-28T11:18:02.473Z,21.15
2022-08-28T11:23:02.469Z,21.4
2022-08-28T11:28:02.453Z,21.64
2022-08-28T11:33:02.458Z,21.91
2022-08-28T11:38:02.435Z,21.91
2022-08-28T11:43:02.441Z,21.82
2022-08-28T11:48:02.432Z,21.71
2022-08-28T11:53:02.423Z,21.6
2022-08-28T12:03:02.446Z,21.73
2022-08-28T12:08:02.415Z,21.8
2022-08-28T12:13:02.401Z,21.7
2022-08-28T12:18:02.391Z,21.6
2022-08-28T12:23:02.393Z,21.54
2022-08-28T12:28:02.393Z,21.31
2022-08-28T12:33:02.378Z,21.09
2022-08-28T12:38:02.363Z,21.17
2022-08-28T12:43:02.395Z,21.23
2022-08-28T12:48:02.354Z,21.4
2022-08-28T12:53:02.353Z,21.6
2022-08-28T12:58:02.346Z,21.77
2022-08-28T13:03:02.334Z,21.61
2022-08-28T13:08:02.333Z,21.32
2022-08-28T13:13:05.559Z,21.15
2022-08-28T13:18:02.301Z,20.98
2022-08-28T13:23:02.305Z,20.98
2022-08-28T13:28:02.300Z,20.98
2022-08-28T13:33:02.335Z,20.98
2022-08-28T13:38:02.300Z,21.16
2022-08-28T13:43:02.294Z,21.49
2022-08-28T13:48:02.274Z,21.68
2022-08-28T13:53:02.276Z,21.79
2022-08-28T13:58:02.258Z,21.85
2022-08-28T14:03:02.256Z,21.86
2022-08-28T14:08:02.243Z,21.96
2022-08-28T14:13:02.241Z,22.05
2022-08-28T14:23:02.220Z,21.96
2022-08-28T14:28:02.230Z,22.12
2022-08-28T14:38:02.206Z,22.48
2022-08-28T14:43:02.208Z,22.61
2022-08-28T14:48:02.198Z,22.84
2022-08-28T14:53:02.182Z,23.01
2022-08-28T15:03:02.179Z,23.37
2022-08-28T15:13:02.158Z,23.78
2022-08-28T16:23:02.072Z,20.5
2022-08-28T16:33:02.062Z,20.43
2022-08-28T16:43:02.057Z,20.98
2022-08-28T16:48:02.045Z,21.09
2022-08-28T16:53:06.298Z,21.22
2022-08-28T16:58:02.018Z,21.25
2022-08-28T17:03:02.025Z,21.1
2022-08-28T17:08:02.016Z,21.02
2022-08-28T17:13:02.009Z,21
2022-08-28T17:18:02.002Z,20.98
2022-08-28T17:23:01.994Z,20.98
2022-08-28T17:28:01.984Z,20.78
2022-08-28T17:33:01.991Z,20.63
2022-08-28T17:38:01.986Z,20.49
2022-08-28T17:43:01.963Z,20.26
2022-08-28T17:48:01.967Z,20.04
2022-08-28T17:53:01.948Z,19.82
2022-08-28T17:58:01.951Z,19.63
2022-08-28T18:03:01.937Z,19.5
2022-08-28T18:08:01.945Z,19.36
2022-08-28T18:13:01.937Z,19.22
2022-08-28T18:18:01.936Z,19.12
2022-08-28T18:23:01.918Z,19.03
2022-08-28T18:28:01.907Z,18.96
2022-08-28T18:33:01.900Z,18.86
2022-08-28T18:38:01.897Z,18.76
2022-08-28T18:43:01.900Z,18.59
2022-08-28T18:48:01.904Z,18.44
2022-08-28T18:53:01.860Z,18.3
2022-08-28T18:58:01.867Z,18.18
2022-08-28T19:03:01.989Z,18.05
2022-08-28T19:08:01.866Z,17.98
2022-08-28T19:13:01.861Z,17.88
2022-08-28T19:18:01.841Z,17.84
2022-08-28T19:23:01.847Z,17.81
2022-08-28T19:28:01.835Z,17.8
2022-08-28T19:33:01.811Z,17.8
2022-08-28T19:38:01.814Z,17.8
2022-08-28T19:43:01.823Z,17.8
2022-08-28T19:48:01.824Z,17.8
2022-08-28T19:53:01.801Z,17.8
2022-08-28T19:58:01.789Z,17.8
2022-08-28T20:03:01.819Z,17.81
2022-08-28T20:08:01.788Z,17.8
2022-08-28T20:13:01.775Z,17.82
2022-08-28T20:18:01.769Z,17.83
2022-08-28T20:23:01.764Z,17.84
2022-08-28T20:28:01.995Z,17.8
2022-08-28T20:33:01.750Z,17.75
2022-08-28T20:38:01.760Z,17.73
2022-08-28T20:43:01.722Z,17.72
2022-08-28T20:48:01.728Z,17.73
2022-08-28T20:53:01.728Z,17.7
2022-08-28T20:58:01.713Z,17.64
2022-08-28T21:03:01.723Z,17.56
2022-08-28T21:08:01.712Z,17.46
2022-08-28T21:13:01.698Z,17.31
2022-08-28T21:18:01.698Z,17.24
2022-08-28T21:23:01.680Z,17.1
2022-08-28T21:28:04.279Z,16.98
2022-08-28T21:33:01.677Z,16.82
2022-08-28T21:38:01.669Z,16.66
2022-08-28T21:43:01.667Z,16.55
2022-08-28T21:48:01.658Z,16.44
2022-08-28T21:53:01.656Z,16.33
2022-08-28T21:58:01.638Z,16.22
2022-08-28T22:13:01.659Z,15.95
2022-08-28T22:18:01.614Z,15.91
2022-08-28T22:23:01.598Z,15.81
2022-08-28T22:28:01.643Z,15.7
2022-08-28T22:33:01.594Z,15.68
2022-08-28T22:38:01.598Z,15.59
2022-08-28T22:43:01.591Z,15.39
2022-08-28T22:48:01.610Z,15.39
2022-08-28T22:53:01.572Z,15.39
2022-08-28T22:58:01.560Z,15.39
2022-08-28T23:03:01.623Z,15.39
2022-08-28T23:08:01.560Z,15.59
2022-08-28T23:13:01.576Z,15.67
2022-08-28T23:18:01.540Z,15.67
2022-08-28T23:23:01.556Z,15.54
2022-08-28T23:28:05.895Z,15.39
2022-08-28T23:33:01.526Z,15.39
2022-08-28T23:38:01.518Z,15.32
2022-08-28T23:43:01.499Z,15.2
2022-08-28T23:48:01.510Z,15.22
2022-08-28T23:53:01.510Z,15.29
2022-08-28T23:58:01.492Z,15.29
